createdAt,value
2022-12-03T00:00:24.319Z,4.20
2022-12-03T00:03:10.070Z,4.20
2022-12-03T00:08:41.583Z,4.20
2022-12-03T00:14:13.632Z,4.20
2022-12-03T00:19:46.294Z,4.20
2022-12-03T00:25:19.267Z,4.30
2022-12-03T00:28:05.782Z,4.30
2022-12-03T00:30:54.265Z,4.30
2022-12-03T00:36:25.901Z,4.30
2022-12-03T00:47:30.830Z,4.30
2022-12-03T00:53:02.643Z,4.30
2022-12-03T00:55:50.637Z,4.30
2022-12-03T01:01:21.895Z,4.20
2022-12-03T01:04:07.582Z,4.10
2022-12-03T01:06:53.299Z,4.20
2022-12-03T01:09:38.989Z,4.20
2022-12-03T01:15:11.067Z,4.20
2022-12-03T01:17:56.735Z,4.20
2022-12-03T01:20:42.220Z,4.20
2022-12-03T01:23:27.723Z,4.20
2022-12-03T01:28:59.948Z,4.20
2022-12-03T01:32:03.919Z,4.20
2022-12-03T01:34:52.686Z,6.10
2022-12-03T01:37:38.933Z,4.20
2022-12-03T01:40:25.286Z,4.10
2022-12-03T01:43:11.016Z,4.10
2022-12-03T01:45:56.807Z,4.10
2022-12-03T01:51:29.908Z,4.10
2022-12-03T01:54:22.362Z,4.00
2022-12-03T01:57:37.811Z,4.00
2022-12-03T02:00:26.958Z,4.00
2022-12-03T02:03:19.204Z,3.90
2022-12-03T02:06:10.121Z,4.00
2022-12-03T02:08:59.740Z,4.00
2022-12-03T02:11:49.287Z,4.00
2022-12-03T02:14:35.018Z,4.00
2022-12-03T02:17:21.018Z,3.90
2022-12-03T02:20:08.778Z,3.90
2022-12-03T02:23:27.072Z,4.00
2022-12-03T02:28:58.787Z,3.90
2022-12-03T02:31:44.628Z,3.90
2022-12-03T02:34:42.176Z,3.90
2022-12-03T02:37:34.731Z,3.90
2022-12-03T02:40:24.397Z,3.90
2022-12-03T02:43:11.328Z,3.90
2022-12-03T02:45:59.863Z,3.80
2022-12-03T02:51:32.622Z,3.80
2022-12-03T02:59:50.126Z,3.80
2022-12-03T03:02:37.290Z,3.80
2022-12-03T03:05:24.402Z,3.80
2022-12-03T03:08:11.659Z,3.80
2022-12-03T03:10:59.624Z,3.80
2022-12-03T03:13:45.486Z,3.80
2022-12-03T03:16:32.982Z,3.80
2022-12-03T03:19:18.729Z,3.80
2022-12-03T03:24:52.692Z,3.80
2022-12-03T03:27:40.495Z,3.80
2022-12-03T03:30:26.336Z,3.70
2022-12-03T03:33:13.579Z,3.70
2022-12-03T03:36:00.450Z,3.70
2022-12-03T03:38:47.141Z,3.70
2022-12-03T03:41:34.612Z,3.70
2022-12-03T03:44:20.168Z,3.70
2022-12-03T03:47:06.508Z,3.70
2022-12-03T03:49:53.032Z,3.70
2022-12-03T03:52:40.639Z,3.70
2022-12-03T03:55:26.388Z,3.60
2022-12-03T03:58:12.266Z,3.70
2022-12-03T04:03:44.023Z,3.60
2022-12-03T04:06:29.820Z,3.60
2022-12-03T04:09:15.431Z,3.60
2022-12-03T04:12:19.816Z,3.60
2022-12-03T04:15:06.098Z,3.60
2022-12-03T04:18:10.856Z,3.50
2022-12-03T04:21:16.398Z,3.60
2022-12-03T04:24:02.070Z,3.50
2022-12-03T04:27:06.069Z,3.50
2022-12-03T04:29:51.543Z,3.40
2022-12-03T04:32:55.429Z,3.40
2022-12-03T04:35:43.793Z,3.50
2022-12-03T04:38:29.442Z,3.50
2022-12-03T04:41:15.361Z,3.50
2022-12-03T04:44:19.479Z,3.50
2022-12-03T04:47:13.917Z,3.50
2022-12-03T04:49:59.357Z,3.50
2022-12-03T04:52:45.097Z,3.40
2022-12-03T04:55:31.142Z,3.40
2022-12-03T04:58:16.427Z,3.40
2022-12-03T05:01:02.078Z,3.40
2022-12-03T05:03:47.631Z,3.40
2022-12-03T05:06:33.301Z,3.40
2022-12-03T05:09:19.094Z,3.40
2022-12-03T05:12:04.912Z,3.40
2022-12-03T05:14:50.730Z,3.40
2022-12-03T05:17:36.148Z,3.40
2022-12-03T05:20:40.144Z,3.50
2022-12-03T05:23:25.844Z,3.50
2022-12-03T05:26:11.623Z,3.50
2022-12-03T05:28:57.464Z,3.40
2022-12-03T05:31:44.842Z,3.40
2022-12-03T05:34:30.324Z,3.40
2022-12-03T05:37:16.289Z,3.40
2022-12-03T05:40:01.949Z,3.40
2022-12-03T05:42:53.490Z,3.40
2022-12-03T05:45:41.431Z,3.30
2022-12-03T05:48:27.162Z,3.40
2022-12-03T05:51:12.693Z,3.40
2022-12-03T05:53:58.240Z,3.40
2022-12-03T05:56:43.919Z,3.40
2022-12-03T05:59:29.548Z,3.40
2022-12-03T06:02:15.241Z,3.50
2022-12-03T06:05:00.498Z,3.40
2022-12-03T06:07:47.468Z,3.40
2022-12-03T06:10:33.248Z,3.40
2022-12-03T06:13:18.542Z,3.40
2022-12-03T06:16:04.690Z,3.40
2022-12-03T06:18:50.291Z,3.40
2022-12-03T06:21:35.671Z,3.40
2022-12-03T06:24:21.064Z,3.40
2022-12-03T06:27:06.556Z,3.40
2022-12-03T06:29:52.538Z,3.40
2022-12-03T06:32:38.456Z,3.40
2022-12-03T06:35:24.495Z,3.40
2022-12-03T06:38:10.102Z,3.40
2022-12-03T06:40:55.567Z,3.40
2022-12-03T06:43:40.958Z,3.40
2022-12-03T06:46:26.542Z,3.40
2022-12-03T06:49:11.943Z,3.50
2022-12-03T06:51:57.580Z,3.40
2022-12-03T06:54:43.378Z,3.40
2022-12-03T06:57:28.962Z,3.40
2022-12-03T07:00:14.959Z,3.50
2022-12-03T07:03:00.831Z,3.40
2022-12-03T07:05:46.733Z,3.40
2022-12-03T07:08:36.118Z,3.40
2022-12-03T07:11:40.601Z,3.40
2022-12-03T07:14:26.246Z,3.30
2022-12-03T07:17:11.670Z,3.40
2022-12-03T07:19:57.799Z,3.40
2022-12-03T07:22:43.344Z,3.40
2022-12-03T07:25:29.830Z,3.40
2022-12-03T07:28:15.318Z,3.40
2022-12-03T07:31:01.909Z,3.50
2022-12-03T07:33:47.974Z,3.50
2022-12-03T07:36:33.624Z,3.50
2022-12-03T07:39:20.364Z,3.50
2022-12-03T07:42:06.292Z,3.60
2022-12-03T07:44:51.932Z,3.60
2022-12-03T07:47:37.610Z,3.60
2022-12-03T07:50:23.022Z,3.60
2022-12-03T07:53:08.594Z,3.60
2022-12-03T07:55:54.024Z,3.70
2022-12-03T07:58:39.666Z,3.70
2022-12-03T08:01:25.131Z,3.70
2022-12-03T08:04:11.610Z,3.70
2022-12-03T08:06:56.932Z,3.70
2022-12-03T08:09:42.887Z,3.80
2022-12-03T08:12:40.168Z,5.60
2022-12-03T08:15:31.157Z,3.80
2022-12-03T08:18:21.395Z,3.80
2022-12-03T08:21:11.474Z,3.80
2022-12-03T08:24:15.849Z,3.80
2022-12-03T08:27:01.903Z,3.90
2022-12-03T08:29:47.662Z,3.90
2022-12-03T08:32:33.139Z,4.00
2022-12-03T08:35:25.559Z,4.00
2022-12-03T08:38:12.897Z,4.00
2022-12-03T08:40:59.163Z,4.10
2022-12-03T08:43:44.652Z,4.10
2022-12-03T08:46:30.801Z,4.20
2022-12-03T08:49:17.023Z,4.20
2022-12-03T08:52:15.726Z,4.30
2022-12-03T08:55:30.911Z,4.30
2022-12-03T08:58:22.307Z,4.30
2022-12-03T09:01:11.108Z,4.20
2022-12-03T09:04:02.180Z,4.20
2022-12-03T09:06:47.838Z,4.20
2022-12-03T09:09:34.556Z,4.20
2022-12-03T09:12:20.278Z,4.30
2022-12-03T09:15:06.340Z,4.40
2022-12-03T09:17:51.973Z,4.40
2022-12-03T09:20:37.553Z,4.30
2022-12-03T09:23:23.776Z,4.40
2022-12-03T09:26:09.289Z,4.50
2022-12-03T09:28:54.761Z,4.50
2022-12-03T09:31:40.623Z,4.50
2022-12-03T09:34:26.070Z,4.40
2022-12-03T09:37:11.816Z,4.50
2022-12-03T09:39:57.443Z,4.40
2022-12-03T09:42:43.032Z,4.40
2022-12-03T09:45:28.756Z,4.40
2022-12-03T09:48:19.699Z,4.50
2022-12-03T09:51:05.086Z,4.50
2022-12-03T09:53:50.639Z,4.50
2022-12-03T09:56:37.726Z,4.60
2022-12-03T09:59:26.483Z,4.50
2022-12-03T10:02:30.617Z,4.20
2022-12-03T10:05:19.810Z,4.60
2022-12-03T10:08:13.578Z,4.60
2022-12-03T10:10:59.388Z,4.70
2022-12-03T10:13:46.259Z,4.70
2022-12-03T10:16:33.784Z,4.70
2022-12-03T10:19:25.952Z,4.80
2022-12-03T10:22:11.581Z,4.80
2022-12-03T10:25:12.551Z,4.80
2022-12-03T10:28:00.737Z,4.80
2022-12-03T10:30:57.583Z,4.80
2022-12-03T10:33:45.806Z,4.70
2022-12-03T10:36:31.487Z,4.80
2022-12-03T10:39:17.255Z,4.80
2022-12-03T10:42:16.182Z,4.80
2022-12-03T10:45:20.842Z,4.90
2022-12-03T10:48:12.485Z,4.90
2022-12-03T10:51:16.960Z,4.90
2022-12-03T10:54:03.495Z,4.90
2022-12-03T10:56:51.364Z,4.80
2022-12-03T10:59:39.822Z,4.90
2022-12-03T11:02:26.331Z,4.80
2022-12-03T11:05:21.802Z,4.80
2022-12-03T11:08:16.365Z,4.80
2022-12-03T11:11:16.087Z,4.80
2022-12-03T11:14:04.420Z,4.80
2022-12-03T11:16:52.663Z,4.90
2022-12-03T11:19:44.704Z,4.90
2022-12-03T11:22:47.609Z,4.90
2022-12-03T11:25:46.882Z,5.00
2022-12-03T11:28:34.259Z,5.00
2022-12-03T11:31:39.461Z,5.00
2022-12-03T11:34:25.024Z,5.00
2022-12-03T11:37:10.518Z,5.00
2022-12-03T11:39:59.937Z,5.10
2022-12-03T11:42:48.094Z,5.10
2022-12-03T11:45:37.193Z,5.10
2022-12-03T11:48:23.113Z,5.10
2022-12-03T11:51:14.675Z,5.00
2022-12-03T11:54:00.878Z,5.00
2022-12-03T11:56:51.262Z,5.00
2022-12-03T11:59:36.548Z,5.00
2022-12-03T12:02:25.030Z,5.00
2022-12-03T12:05:46.275Z,4.90
2022-12-03T12:08:33.812Z,4.80
2022-12-03T12:11:26.554Z,4.90
2022-12-03T12:14:13.547Z,5.00
2022-12-03T12:17:03.219Z,5.10
2022-12-03T12:19:54.196Z,5.00
2022-12-03T12:22:40.345Z,5.00
2022-12-03T12:25:40.803Z,4.90
2022-12-03T12:28:26.419Z,5.00
2022-12-03T12:31:11.954Z,5.00
2022-12-03T12:33:57.297Z,5.00
2022-12-03T12:36:42.814Z,5.00
2022-12-03T12:39:28.481Z,5.00
2022-12-03T12:42:32.819Z,5.00
2022-12-03T12:45:21.370Z,5.10
2022-12-03T12:48:09.980Z,5.20
2022-12-03T12:51:11.197Z,5.20
2022-12-03T12:54:13.927Z,5.20
2022-12-03T12:56:59.352Z,5.30
2022-12-03T12:59:45.223Z,5.30
2022-12-03T13:05:18.160Z,5.40
2022-12-03T13:08:20.366Z,5.30
2022-12-03T13:11:11.876Z,5.40
2022-12-03T13:14:12.588Z,5.40
2022-12-03T13:17:00.936Z,5.40
2022-12-03T13:20:01.994Z,5.50
2022-12-03T13:22:49.058Z,5.50
2022-12-03T13:25:59.196Z,5.40
2022-12-03T13:28:43.207Z,5.40
2022-12-03T13:31:34.177Z,5.40
2022-12-03T13:34:31.101Z,5.30
2022-12-03T13:37:25.319Z,5.30
2022-12-03T13:40:26.575Z,5.30
2022-12-03T13:43:18.603Z,5.30
2022-12-03T13:46:04.625Z,5.20
2022-12-03T13:48:50.329Z,5.20
2022-12-03T13:51:36.060Z,5.30
2022-12-03T13:54:26.174Z,5.30
2022-12-03T13:57:12.882Z,5.40
2022-12-03T13:59:59.755Z,5.40
2022-12-03T14:02:45.299Z,5.30
2022-12-03T14:05:30.815Z,5.20
2022-12-03T14:08:16.687Z,5.30
2022-12-03T14:11:02.307Z,5.30
2022-12-03T14:13:48.092Z,5.30
2022-12-03T14:16:33.811Z,5.40
2022-12-03T14:22:07.936Z,5.30
2022-12-03T14:24:54.303Z,5.30
2022-12-03T14:27:40.187Z,5.30
2022-12-03T14:33:11.920Z,5.20
2022-12-03T14:35:57.530Z,5.20
2022-12-03T14:38:43.151Z,5.10
2022-12-03T14:41:47.142Z,5.00
2022-12-03T14:47:22.693Z,5.10
2022-12-03T14:50:08.642Z,5.20
2022-12-03T14:52:54.095Z,5.30
2022-12-03T14:55:39.507Z,5.30
2022-12-03T14:58:27.226Z,5.40
2022-12-03T15:01:13.207Z,5.40
2022-12-03T15:03:58.658Z,5.40
2022-12-03T15:06:44.382Z,5.50
2022-12-03T15:09:30.112Z,5.50
2022-12-03T15:12:15.761Z,5.40
2022-12-03T15:17:48.794Z,5.30
2022-12-03T15:23:24.803Z,5.80
2022-12-03T15:26:10.234Z,5.40
2022-12-03T15:28:55.960Z,5.40
2022-12-03T15:31:41.583Z,5.40
2022-12-03T15:34:28.232Z,5.40
2022-12-03T15:37:14.900Z,5.40
2022-12-03T15:40:13.860Z,5.40
2022-12-03T15:43:07.732Z,5.30
2022-12-03T15:45:57.730Z,5.30
2022-12-03T15:48:43.907Z,5.30
2022-12-03T15:51:30.422Z,5.20
2022-12-03T15:57:02.193Z,5.10
2022-12-03T15:59:48.810Z,5.10
2022-12-03T16:02:34.513Z,5.00
2022-12-03T16:05:20.871Z,4.90
2022-12-03T16:10:55.422Z,4.90
2022-12-03T16:13:41.230Z,4.80
2022-12-03T16:16:26.945Z,4.80
2022-12-03T16:19:13.197Z,4.70
2022-12-03T16:21:59.103Z,4.70
2022-12-03T16:24:44.717Z,4.60
2022-12-03T16:27:30.248Z,4.60
2022-12-03T16:30:16.231Z,4.50
2022-12-03T16:33:02.185Z,4.40
2022-12-03T16:35:47.824Z,4.40
2022-12-03T16:38:35.036Z,4.30
2022-12-03T16:41:22.417Z,4.30
2022-12-03T16:44:09.350Z,4.20
2022-12-03T16:46:55.786Z,4.10
2022-12-03T16:49:41.193Z,4.00
2022-12-03T16:52:26.820Z,3.90
2022-12-03T16:55:12.694Z,3.80
2022-12-03T16:57:58.308Z,3.80
2022-12-03T17:03:34.080Z,3.80
2022-12-03T17:06:20.090Z,3.70
2022-12-03T17:09:05.829Z,3.70
2022-12-03T17:11:51.779Z,3.70
2022-12-03T17:14:37.493Z,3.70
2022-12-03T17:17:23.003Z,3.70
2022-12-03T17:20:09.054Z,3.60
2022-12-03T17:22:54.780Z,3.50
2022-12-03T17:28:27.508Z,3.30
2022-12-03T17:31:13.525Z,3.30
2022-12-03T17:33:59.533Z,3.30
2022-12-03T17:36:45.119Z,2.20
2022-12-03T17:39:31.633Z,3.10
2022-12-03T17:42:18.256Z,3.00
2022-12-03T17:45:06.749Z,3.00
2022-12-03T17:47:52.777Z,3.20
2022-12-03T17:50:38.491Z,2.90
2022-12-03T17:53:24.523Z,2.90
2022-12-03T17:56:10.481Z,2.90
2022-12-03T17:58:57.168Z,2.90
2022-12-03T18:01:45.960Z,2.80
2022-12-03T18:04:32.057Z,2.80
2022-12-03T18:07:17.926Z,2.90
2022-12-03T18:10:04.088Z,2.90
2022-12-03T18:12:50.525Z,2.80
2022-12-03T18:15:39.124Z,2.80
2022-12-03T18:18:56.682Z,2.80
2022-12-03T18:21:44.466Z,2.80
2022-12-03T18:24:30.857Z,2.80
2022-12-03T18:27:17.432Z,2.80
2022-12-03T18:30:03.482Z,2.80
2022-12-03T18:32:49.734Z,2.80
2022-12-03T18:35:35.502Z,2.90
2022-12-03T18:38:22.112Z,3.00
2022-12-03T18:41:08.631Z,3.10
2022-12-03T18:43:57.041Z,3.20
2022-12-03T18:46:58.608Z,3.30
2022-12-03T18:49:44.543Z,3.40
2022-12-03T18:52:32.945Z,3.50
2022-12-03T18:55:30.936Z,3.50
2022-12-03T18:59:20.898Z,3.40
2022-12-03T19:02:08.156Z,3.30
2022-12-03T19:04:54.136Z,3.10
2022-12-03T19:07:39.962Z,2.90
2022-12-03T19:10:31.180Z,2.80
2022-12-03T19:13:21.154Z,2.70
2022-12-03T19:16:09.045Z,2.60
2022-12-03T19:18:56.035Z,2.60
2022-12-03T19:21:41.646Z,2.50
2022-12-03T19:24:27.427Z,2.50
2022-12-03T19:27:13.152Z,2.50
2022-12-03T19:29:59.011Z,2.40
2022-12-03T19:32:45.747Z,2.40
2022-12-03T19:35:32.226Z,2.40
2022-12-03T19:38:17.961Z,2.40
2022-12-03T19:41:06.785Z,2.40
2022-12-03T19:43:54.564Z,2.30
2022-12-03T19:46:40.867Z,2.30
2022-12-03T19:49:27.235Z,2.20
2022-12-03T19:52:12.618Z,2.10
2022-12-03T19:54:58.054Z,2.10
2022-12-03T19:57:44.295Z,2.10
2022-12-03T20:00:30.585Z,2.10
2022-12-03T20:03:16.268Z,2.00
2022-12-03T20:06:02.225Z,2.10
2022-12-03T20:08:47.847Z,2.10
2022-12-03T20:11:34.964Z,2.20
2022-12-03T20:14:20.799Z,2.30
2022-12-03T20:17:06.664Z,2.30
2022-12-03T20:19:52.598Z,2.30
2022-12-03T20:22:39.952Z,2.40
2022-12-03T20:25:25.634Z,2.40
2022-12-03T20:28:11.028Z,2.30
2022-12-03T20:31:19.945Z,2.30
2022-12-03T20:34:06.469Z,2.30
2022-12-03T20:36:51.950Z,2.30
2022-12-03T20:39:38.226Z,2.20
2022-12-03T20:42:24.020Z,2.20
2022-12-03T20:45:10.354Z,2.10
2022-12-03T20:47:56.059Z,2.10
2022-12-03T20:50:41.689Z,2.10
2022-12-03T20:53:27.288Z,2.10
2022-12-03T20:56:26.039Z,2.00
2022-12-03T20:59:15.355Z,2.00
2022-12-03T21:02:01.216Z,2.00
2022-12-03T21:04:46.998Z,2.00
2022-12-03T21:07:32.638Z,1.90
2022-12-03T21:10:44.832Z,1.90
2022-12-03T21:13:32.443Z,1.90
2022-12-03T21:16:39.510Z,2.00
2022-12-03T21:19:27.550Z,2.00
2022-12-03T21:22:14.725Z,2.00
2022-12-03T21:25:00.396Z,1.90
2022-12-03T21:27:46.834Z,1.90
2022-12-03T21:30:33.089Z,1.90
2022-12-03T21:33:19.309Z,1.90
2022-12-03T21:36:06.480Z,2.00
2022-12-03T21:38:52.079Z,2.00
2022-12-03T21:41:37.830Z,2.00
2022-12-03T21:44:23.470Z,2.00
2022-12-03T21:47:14.219Z,2.00
2022-12-03T21:50:00.593Z,2.00
2022-12-03T21:52:50.423Z,2.00
2022-12-03T21:55:40.551Z,2.00
2022-12-03T21:58:26.256Z,2.00
2022-12-03T22:01:20.679Z,2.00
2022-12-03T22:04:06.226Z,2.00
2022-12-03T22:06:51.804Z,2.00
2022-12-03T22:09:38.386Z,2.00
2022-12-03T22:12:24.952Z,2.00
2022-12-03T22:15:18.117Z,2.00
2022-12-03T22:18:07.592Z,2.00
2022-12-03T22:20:52.982Z,2.00
2022-12-03T22:23:38.739Z,2.00
2022-12-03T22:26:25.292Z,2.00
2022-12-03T22:29:12.053Z,2.10
2022-12-03T22:31:57.901Z,2.00
2022-12-03T22:34:47.096Z,2.00
2022-12-03T22:37:32.918Z,2.10
2022-12-03T22:40:18.637Z,2.10
2022-12-03T22:43:04.164Z,2.10
2022-12-03T22:45:54.901Z,2.00
2022-12-03T22:48:42.605Z,2.00
2022-12-03T22:51:29.001Z,2.00
2022-12-03T22:54:18.292Z,2.00
2022-12-03T22:57:09.207Z,2.00
2022-12-03T22:59:55.344Z,2.00
2022-12-03T23:02:41.260Z,2.00
2022-12-03T23:05:30.879Z,2.10
2022-12-03T23:08:20.505Z,2.10
2022-12-03T23:11:06.219Z,2.20
2022-12-03T23:13:52.680Z,2.20
2022-12-03T23:16:39.364Z,2.20
2022-12-03T23:19:25.026Z,2.20
2022-12-03T23:22:10.894Z,2.10
2022-12-03T23:24:56.568Z,2.10
2022-12-03T23:27:43.210Z,2.10
2022-12-03T23:30:28.801Z,2.10
2022-12-03T23:33:14.390Z,2.10
2022-12-03T23:35:59.900Z,2.10
2022-12-03T23:38:45.547Z,2.10
2022-12-03T23:41:31.117Z,2.10
2022-12-03T23:44:18.525Z,2.20
2022-12-03T23:47:04.450Z,2.20
2022-12-03T23:49:50.058Z,2.20
2022-12-03T23:52:36.490Z,2.20
2022-12-03T23:55:23.951Z,2.30
2022-12-03T23:58:09.735Z,2.30
